Charlotte, NC (28216)

3:52 PM EST on February 10, 2016 (GMT -0500)
allen hills | | Change Station
CLOSE
Current Station
Personal Weather Station
Location: Charlotte, NC
Elevation: 807 ft
Nearby Weather Stations

Elev 807 ft 35.29 °N, 80.80 °W | Updated 9 seconds ago

Partly Cloudy
Partly Cloudy
36.0 °F
Feels Like 33 °F
N
3.5
Wind Variable Wind from WSW
Gusts 3.5 mph

Today
High -- | Low -- °F
--% Chance of Precip.
Yesterday
High -- | Low -- °F
Precip. -- in
Pressure 29.95 in
Visibility 10.0 miles
Clouds Scattered Clouds 5500 ft
Windchill 33 °F
Dew Point 15 °F
Humidity 42%
Rainfall 0.00 in
Snow Depth Not available.
7:15 AM 6:00 PM
Waxing Crescent, 7% visible
METAR KCLT 101952Z 28010G19KT 10SM SCT055 03/M13 A2993 RMK AO2 SLP140 T00331128
Pressure 29.95 in
Visibility 10.0 miles
Clouds Scattered Clouds 5500 ft
Windchill 33 °F
Dew Point 15 °F
Humidity 42%
Rainfall 0.00 in
Snow Depth Not available.
7:15 AM 6:00 PM
Waxing Crescent, 7% visible
METAR KCLT 101952Z 28010G19KT 10SM SCT055 03/M13 A2993 RMK AO2 SLP140 T00331128

10-Day Weather Forecast

Almanac

Astronomy

Feb. 10, 2016 Rise Set
Actual Time
Civil Twilight
Nautical Twilight
Astronomical Twilight
Moon
Length of Visible Light
Length of Day
Tomorrow will be .
, % of the Moon is Illuminated

Today's Extremes

State Highs State Lows

Community

WunderPhotos

Upload Photos

1,891,945 photos uploaded!

WunderBlog® & News

Nearby

Air Quality

  Air Quality AQ Index Pollutant
Not available.

Snow Depth

Station Depth Elevation

Earthquake Activity

City Distance Mag. Time & Date
Minimum magnitude displayed is 2.5.

Coastal Water Temperatures

Place Temperature

Stations

Nearby Weather Stations

Station Location Temp. Windchill Dew Point Humidity Wind Precip. Elev Updated Type
                   

Watches & Warnings

There are currently no watches in effect.